Главная страница
METAR-TAF:

METAR-TAF

Аэропорты :

Ургенч, Узбекистан

широта: 41-35N, долгота: 060-38-42E, высота над уровнем моря: 98 м

Текущие метеонаблюдения

Эта сводка был подготовлена 48 минут назад, в 06:30 UTC
Ветер 6 Узел от северный
Температура 20°C
Влажность 24%
Давление 1029 hPa
Видимость 10 км и более
Нет облачности ниже 1500 м, и нет кучево-дождевой облачности

METAR: UTNU 290630Z 01006KT CAVOK 20/M01 Q1029 R31/CLRD70 NOSIG

Время: 12:18 (07:18 UTC)

Прогноз

Эта сводка был подготовлена 2 часа и 16 минут назад, в 05:02 UTC
Прогноз действительный с 29-го 06 UTC до 30-го 06 UTC
Ветер 10 Узел от восточно-северо-восточный с порывами до 20 Узел
Видимость: 7000 м
временами
С 29-го 06 UTC до 29-го 12 UTC
Ветер 8 Узел от северный

TAF: UTNU 290502Z 2906/3006 06010G20KT 7000 NSC TEMPO 2906/2912 01008KT

Метеонаблюдения и прогнозы для более 4000 аэропортов (сводки METAR и TAF).

Имеющиеся станции представлены на карте желтыми и красными точками.

Чтобы увидеть название станции, наведите на нее мышь.

Затем щелкните, чтобы увидеть метеонаблюдения и метеопрогнозы.

Управление картой: чтобы увеличить масштаб, щелкните зеленые кнопки с черным крестиком; чтобы уменьшить масштаб, щелкните зеленую кнопку с тире; для просмотра соседних карт щелкайте зеленые стрелки.


METAR-TAF: